Time;durP1;ratioP1;P1;durP2;ratioP2;P2;SDS_P1;SDS_P2;PMS_P1;PMS_P2;Temp;Humidity;BMP_temperature;BMP_pressure;BME280_temperature;BME280_humidity;BME280_pressure;Samples;Min_cycle;Max_cycle;Signal;HPM_P1;HPM_P2
2021/12/03 00:01:19;;;;;;;9.60;7.37;;;1.20;97.90;;;;;;5069065;28;20240;-83
2021/12/03 00:03:54;;;;;;;11.27;7.67;;;1.30;97.30;;;;;;4997095;28;20297;-83
2021/12/03 00:06:22;;;;;;;9.63;7.40;;;1.50;96.90;;;;;;4994212;28;20238;-83
2021/12/03 00:12:24;;;;;;;10.90;8.07;;;1.50;96.90;;;;;;5062522;28;20247;-84
2021/12/03 00:14:56;;;;;;;9.43;7.17;;;1.50;96.50;;;;;;5074550;28;20201;-84
2021/12/03 00:20:45;;;;;;;11.33;6.90;;;1.30;96.40;;;;;;5073340;28;20265;-84
2021/12/03 00:23:51;;;;;;;12.07;7.50;;;1.30;96.50;;;;;;5057221;28;20201;-83
2021/12/03 00:26:18;;;;;;;10.27;7.00;;;1.20;96.40;;;;;;5069426;28;20229;-83
2021/12/03 00:28:54;;;;;;;11.20;7.70;;;1.10;96.60;;;;;;5075711;28;20662;-83
2021/12/03 00:31:22;;;;;;;9.63;6.90;;;1.10;96.90;;;;;;5077247;28;20303;-83
2021/12/03 00:33:49;;;;;;;9.27;7.27;;;1.00;96.80;;;;;;5078415;28;20205;-84
2021/12/03 00:36:16;;;;;;;10.00;7.37;;;1.10;96.80;;;;;;5073045;28;20226;-84
2021/12/03 00:38:49;;;;;;;9.23;7.17;;;1.20;96.40;;;;;;5070889;28;20200;-84
2021/12/03 00:41:19;;;;;;;9.30;6.63;;;1.20;96.60;;;;;;5061883;28;20236;-84
2021/12/03 00:43:47;;;;;;;9.23;7.20;;;1.20;96.60;;;;;;5074726;28;20299;-84
2021/12/03 00:46:17;;;;;;;9.60;7.33;;;1.20;96.70;;;;;;5074671;28;20711;-83
2021/12/03 00:48:45;;;;;;;9.67;7.07;;;1.20;96.40;;;;;;5076468;28;20197;-85
2021/12/03 00:51:13;;;;;;;10.43;7.80;;;1.30;96.50;;;;;;5073949;28;20231;-84
2021/12/03 00:53:40;;;;;;;9.97;7.60;;;1.30;96.30;;;;;;5067705;28;20217;-84
2021/12/03 00:56:10;;;;;;;10.70;7.73;;;1.40;96.30;;;;;;5060745;28;20225;-84
2021/12/03 00:58:37;;;;;;;11.03;8.17;;;1.50;95.80;;;;;;5067927;28;20198;-84
2021/12/03 01:01:06;;;;;;;10.27;7.33;;;1.50;96.10;;;;;;5078874;28;20236;-84
2021/12/03 01:03:33;;;;;;;9.80;7.23;;;1.60;96.10;;;;;;5063687;28;20194;-84
2021/12/03 01:06:00;;;;;;;10.70;7.47;;;1.60;95.50;;;;;;5069776;28;20264;-85
2021/12/03 01:08:28;;;;;;;10.70;7.83;;;1.60;95.70;;;;;;5076791;28;20205;-84
2021/12/03 01:10:55;;;;;;;10.97;7.50;;;1.50;95.80;;;;;;5075951;28;20225;-84
2021/12/03 01:13:24;;;;;;;11.07;7.77;;;1.70;95.80;;;;;;5075271;28;20204;-85
2021/12/03 01:15:52;;;;;;;11.33;7.77;;;1.70;95.40;;;;;;5065337;28;20235;-85
2021/12/03 01:18:19;;;;;;;11.83;8.03;;;1.70;95.50;;;;;;5078715;28;20580;-85
2021/12/03 01:20:59;;;;;;;14.73;8.23;;;1.60;95.80;;;;;;5068886;28;20221;-85
2021/12/03 01:23:26;;;;;;;10.63;7.90;;;1.70;96.00;;;;;;5076241;28;20192;-85
2021/12/03 01:25:53;;;;;;;10.43;7.63;;;1.60;95.60;;;;;;5071852;28;20221;-84
2021/12/03 01:28:20;;;;;;;12.37;7.87;;;1.50;95.80;;;;;;5074585;28;20573;-84
2021/12/03 01:30:49;;;;;;;10.97;8.07;;;1.40;95.80;;;;;;5077263;28;20283;-85
2021/12/03 01:33:17;;;;;;;10.60;7.17;;;1.50;96.30;;;;;;5072058;28;20205;-85
2021/12/03 01:35:44;;;;;;;12.17;7.80;;;1.50;95.90;;;;;;5064191;28;20679;-84
2021/12/03 01:38:23;;;;;;;10.97;8.13;;;1.50;95.80;;;;;;5063534;28;20228;-84
2021/12/03 01:40:51;;;;;;;11.70;8.00;;;1.50;96.10;;;;;;5075324;28;20233;-85
2021/12/03 01:43:22;;;;;;;10.50;7.40;;;1.50;96.10;;;;;;5068093;28;20235;-85
2021/12/03 01:45:52;;;;;;;11.47;8.10;;;1.50;95.80;;;;;;5080328;28;20229;-85
2021/12/03 01:48:19;;;;;;;11.67;8.13;;;1.60;95.80;;;;;;5071075;28;20653;-85
2021/12/03 01:50:48;;;;;;;12.57;7.90;;;1.50;96.00;;;;;;5075563;28;20231;-85
2021/12/03 01:53:17;;;;;;;10.87;8.53;;;1.50;95.90;;;;;;5076326;28;20197;-84
2021/12/03 01:55:45;;;;;;;10.63;8.07;;;1.50;96.00;;;;;;5076231;28;20232;-84
2021/12/03 01:58:14;;;;;;;12.10;8.53;;;1.50;96.10;;;;;;5059634;28;20229;-83
2021/12/03 02:00:43;;;;;;;11.93;8.03;;;1.60;95.80;;;;;;5086797;28;20225;-84
2021/12/03 02:03:15;;;;;;;9.73;7.80;;;1.60;95.80;;;;;;5078620;28;20198;-84
2021/12/03 02:05:42;;;;;;;10.67;8.10;;;1.60;95.60;;;;;;5075937;28;20235;-83
2021/12/03 02:08:09;;;;;;;11.97;7.50;;;1.60;95.30;;;;;;5079339;28;20205;-83
2021/12/03 02:10:37;;;;;;;9.93;7.70;;;1.50;95.20;;;;;;5082422;28;20220;-83
2021/12/03 02:13:08;;;;;;;12.10;8.27;;;1.50;95.40;;;;;;5081458;28;20205;-83
2021/12/03 02:15:36;;;;;;;11.03;8.03;;;1.50;95.50;;;;;;5090368;28;20291;-83
2021/12/03 02:18:02;;;;;;;10.70;7.73;;;1.60;95.20;;;;;;5069961;28;20223;-84
2021/12/03 02:20:31;;;;;;;12.13;8.07;;;1.50;95.10;;;;;;5075940;28;20203;-84
2021/12/03 02:22:59;;;;;;;12.30;7.70;;;1.40;95.10;;;;;;5076080;28;20633;-84
2021/12/03 02:25:28;;;;;;;10.33;8.17;;;1.40;95.90;;;;;;5075289;28;20565;-83
2021/12/03 02:27:57;;;;;;;10.40;7.60;;;1.40;95.60;;;;;;5073967;28;20201;-85
2021/12/03 02:30:25;;;;;;;12.17;8.30;;;1.50;95.30;;;;;;5072720;28;20208;-85
2021/12/03 02:32:54;;;;;;;10.20;7.73;;;1.60;95.10;;;;;;5064821;28;20208;-84
2021/12/03 02:35:23;;;;;;;9.47;7.57;;;1.60;94.90;;;;;;5068391;28;20196;-84
2021/12/03 02:37:51;;;;;;;10.87;7.80;;;1.50;95.10;;;;;;5070925;28;20248;-83
2021/12/03 02:40:20;;;;;;;10.90;8.13;;;1.40;95.30;;;;;;5067083;28;20193;-84
2021/12/03 02:42:48;;;;;;;11.93;8.73;;;1.40;95.50;;;;;;5075638;28;20569;-84
2021/12/03 02:45:16;;;;;;;10.90;8.03;;;1.40;95.60;;;;;;5081004;28;20199;-83
2021/12/03 02:47:43;;;;;;;10.63;7.80;;;1.50;95.60;;;;;;5079255;28;20211;-83
2021/12/03 02:50:13;;;;;;;12.57;7.97;;;1.50;95.10;;;;;;5079262;28;20297;-83
2021/12/03 02:52:42;;;;;;;11.80;7.80;;;1.60;95.10;;;;;;5075651;28;20217;-84
2021/12/03 02:55:09;;;;;;;10.27;7.50;;;1.60;95.10;;;;;;5078848;28;20212;-83
2021/12/03 02:57:38;;;;;;;10.93;8.20;;;1.60;94.90;;;;;;5079861;28;20230;-83
2021/12/03 03:00:07;;;;;;;11.20;7.97;;;1.50;94.70;;;;;;5080468;28;20228;-83
2021/12/03 03:02:34;;;;;;;10.13;7.20;;;1.50;95.10;;;;;;5073889;28;20218;-83
2021/12/03 03:05:00;;;;;;;11.13;7.40;;;1.50;95.40;;;;;;5076905;28;20205;-84
2021/12/03 03:07:29;;;;;;;8.37;6.87;;;1.60;95.00;;;;;;5082323;28;20235;-85
2021/12/03 03:09:56;;;;;;;10.77;7.03;;;1.60;94.80;;;;;;5076299;28;20197;-83
2021/12/03 03:12:24;;;;;;;12.53;7.70;;;1.60;94.70;;;;;;5077172;28;20243;-83
2021/12/03 03:14:57;;;;;;;11.90;6.70;;;1.60;94.40;;;;;;5067023;28;20190;-84
2021/12/03 03:17:25;;;;;;;12.57;6.50;;;1.60;94.50;;;;;;5063821;28;20238;-84
2021/12/03 03:19:53;;;;;;;9.40;7.13;;;1.60;94.50;;;;;;5071093;28;20211;-85
2021/12/03 03:22:20;;;;;;;10.63;7.00;;;1.60;94.40;;;;;;5074876;28;20224;-84
2021/12/03 03:24:47;;;;;;;10.67;6.77;;;1.50;95.00;;;;;;5074443;28;20208;-86
2021/12/03 03:27:16;;;;;;;8.13;6.13;;;1.60;94.60;;;;;;5073516;28;20236;-85
2021/12/03 03:29:44;;;;;;;11.13;7.37;;;1.50;95.00;;;;;;5066762;28;20200;-84
2021/12/03 03:32:13;;;;;;;10.63;6.93;;;1.50;95.10;;;;;;5066466;28;20228;-85
2021/12/03 03:34:40;;;;;;;9.30;6.40;;;1.50;95.10;;;;;;5074775;28;20197;-83
2021/12/03 03:37:08;;;;;;;9.63;6.80;;;1.50;95.10;;;;;;5069955;28;20595;-87
2021/12/03 03:39:35;;;;;;;10.40;7.07;;;1.50;95.00;;;;;;5073760;28;20208;-83
2021/12/03 03:42:03;;;;;;;10.93;6.83;;;1.50;95.00;;;;;;5072484;28;20225;-83
2021/12/03 03:44:30;;;;;;;8.53;6.70;;;1.50;94.90;;;;;;5074493;28;20576;-84
2021/12/03 03:46:59;;;;;;;8.77;6.60;;;1.50;95.00;;;;;;5067156;28;20226;-84
2021/12/03 03:49:29;;;;;;;8.43;6.43;;;1.40;94.90;;;;;;5075387;28;20674;-84
2021/12/03 03:51:56;;;;;;;9.10;6.70;;;1.50;95.20;;;;;;5073210;28;20221;-84
2021/12/03 03:54:23;;;;;;;8.90;6.70;;;1.50;95.50;;;;;;5065939;28;20209;-84
2021/12/03 03:56:50;;;;;;;9.03;6.80;;;1.40;95.10;;;;;;5054421;28;20240;-85
2021/12/03 03:59:17;;;;;;;8.10;6.27;;;1.30;95.60;;;;;;5066898;28;20228;-85
2021/12/03 04:01:45;;;;;;;8.83;6.30;;;1.30;95.50;;;;;;5073808;28;20641;-84
2021/12/03 04:04:12;;;;;;;10.17;6.97;;;1.40;95.40;;;;;;5073329;28;20277;-85
2021/12/03 04:06:41;;;;;;;10.03;6.80;;;1.50;95.50;;;;;;5076116;28;20217;-85
2021/12/03 04:09:09;;;;;;;9.43;6.13;;;1.40;95.30;;;;;;5073515;28;20200;-86
2021/12/03 04:11:36;;;;;;;9.63;7.13;;;1.40;95.40;;;;;;5081910;28;20217;-85
2021/12/03 04:14:03;;;;;;;9.13;6.37;;;1.40;95.60;;;;;;5077608;28;20288;-86
2021/12/03 04:16:31;;;;;;;9.10;6.53;;;1.30;96.00;;;;;;5079075;28;20227;-85
2021/12/03 04:18:58;;;;;;;9.23;6.20;;;1.30;95.80;;;;;;5073031;28;20767;-85
2021/12/03 04:21:25;;;;;;;8.50;6.63;;;1.40;95.70;;;;;;5061978;28;20221;-85
2021/12/03 04:23:54;;;;;;;8.67;6.90;;;1.30;96.20;;;;;;5053962;28;20201;-84
2021/12/03 04:26:21;;;;;;;8.47;6.83;;;1.30;96.60;;;;;;5072079;28;20391;-86
2021/12/03 04:28:49;;;;;;;10.70;7.10;;;1.30;96.80;;;;;;5072896;28;20201;-85
2021/12/03 04:31:16;;;;;;;10.87;7.17;;;1.20;96.90;;;;;;5064438;28;20715;-84
2021/12/03 04:33:43;;;;;;;8.53;6.70;;;1.20;96.90;;;;;;5056919;28;20223;-84
2021/12/03 04:36:10;;;;;;;10.67;6.90;;;1.20;96.70;;;;;;5070828;28;20584;-83
2021/12/03 04:38:37;;;;;;;11.40;5.83;;;1.10;96.50;;;;;;5073448;28;20228;-84
2021/12/03 04:41:06;;;;;;;8.03;6.37;;;1.10;96.60;;;;;;5062319;28;20237;-84
2021/12/03 04:43:34;;;;;;;9.90;7.23;;;1.00;96.80;;;;;;5059061;28;20222;-84
2021/12/03 04:46:01;;;;;;;8.33;6.13;;;1.00;96.80;;;;;;5063031;28;20681;-84
2021/12/03 04:48:30;;;;;;;9.03;6.50;;;1.00;97.00;;;;;;5053601;28;20205;-84
2021/12/03 04:50:57;;;;;;;9.80;6.97;;;1.00;96.80;;;;;;5069571;28;20244;-83
2021/12/03 04:53:25;;;;;;;9.60;7.30;;;1.00;96.80;;;;;;5065989;28;20218;-83
2021/12/03 04:55:54;;;;;;;7.87;5.93;;;1.20;96.90;;;;;;5073086;28;20563;-83
2021/12/03 04:58:22;;;;;;;8.30;5.70;;;1.20;96.30;;;;;;5073726;28;20209;-82
2021/12/03 05:00:52;;;;;;;7.83;5.70;;;1.20;95.70;;;;;;5073882;28;20193;-84
2021/12/03 05:03:22;;;;;;;8.03;5.90;;;1.20;95.60;;;;;;5076643;28;20660;-83
2021/12/03 05:05:52;;;;;;;11.53;6.00;;;1.10;95.50;;;;;;5073025;28;20270;-84
2021/12/03 05:08:19;;;;;;;9.60;5.80;;;1.00;95.40;;;;;;5073123;28;20201;-83
2021/12/03 05:10:46;;;;;;;8.23;5.80;;;1.00;95.70;;;;;;5061208;28;20231;-83
2021/12/03 05:13:15;;;;;;;8.03;5.60;;;1.00;95.90;;;;;;5068892;28;20201;-84
2021/12/03 05:15:45;;;;;;;7.73;5.87;;;1.00;95.40;;;;;;5076562;28;20312;-83
2021/12/03 05:18:16;;;;;;;7.23;5.70;;;1.00;95.40;;;;;;5068276;28;20209;-84
2021/12/03 05:20:44;;;;;;;9.90;6.23;;;1.00;95.50;;;;;;5065588;28;20225;-85
2021/12/03 05:23:12;;;;;;;7.47;6.00;;;1.10;95.40;;;;;;5059499;28;20208;-84
2021/12/03 05:25:40;;;;;;;7.27;5.50;;;1.10;95.40;;;;;;5052074;28;20229;-85
2021/12/03 05:28:07;;;;;;;6.10;5.43;;;1.20;94.90;;;;;;5068102;28;20211;-84
2021/12/03 05:30:35;;;;;;;8.37;5.70;;;1.30;94.90;;;;;;5073820;28;20221;-85
2021/12/03 05:33:05;;;;;;;8.07;5.53;;;1.20;94.80;;;;;;5067502;28;20204;-84
2021/12/03 05:35:32;;;;;;;8.67;6.40;;;1.10;94.30;;;;;;5074891;28;20209;-86
2021/12/03 05:37:59;;;;;;;8.87;5.70;;;1.10;94.80;;;;;;5056579;28;20228;-84
2021/12/03 05:40:27;;;;;;;7.63;6.10;;;1.10;95.00;;;;;;5076115;28;20583;-84
2021/12/03 05:42:54;;;;;;;10.00;6.50;;;1.20;94.80;;;;;;5072903;28;20224;-87
2021/12/03 05:45:26;;;;;;;7.87;6.53;;;1.20;94.80;;;;;;5076090;28;20196;-85
2021/12/03 05:47:54;;;;;;;8.23;5.73;;;1.30;94.80;;;;;;5068014;28;20193;-87
2021/12/03 05:50:24;;;;;;;8.23;6.40;;;1.30;94.80;;;;;;5037342;28;20198;-86
2021/12/03 05:52:53;;;;;;;9.43;5.97;;;1.40;94.50;;;;;;5052648;28;20648;-86
2021/12/03 05:55:21;;;;;;;9.37;5.80;;;1.40;94.50;;;;;;5061918;28;20204;-87
2021/12/03 05:57:48;;;;;;;7.67;6.17;;;1.40;94.30;;;;;;5064767;28;20202;-85
2021/12/03 06:00:18;;;;;;;9.77;6.27;;;1.40;94.30;;;;;;5071909;28;20204;-83
2021/12/03 06:02:46;;;;;;;8.20;6.37;;;1.30;94.30;;;;;;5076500;28;20207;-84
2021/12/03 06:05:13;;;;;;;8.60;6.10;;;1.20;94.60;;;;;;5081046;28;20667;-83
2021/12/03 06:07:44;;;;;;;8.70;6.43;;;1.10;95.00;;;;;;5062898;28;20220;-85
2021/12/03 06:10:11;;;;;;;12.10;6.90;;;1.20;95.20;;;;;;5072792;28;20197;-85
2021/12/03 06:12:38;;;;;;;9.13;6.77;;;1.30;94.90;;;;;;5072768;28;20235;-85
2021/12/03 06:15:06;;;;;;;12.50;7.13;;;1.20;95.20;;;;;;5075111;28;20209;-84
2021/12/03 06:17:33;;;;;;;10.47;6.63;;;1.10;95.00;;;;;;5055721;28;20226;-84
2021/12/03 06:20:00;;;;;;;7.77;6.40;;;1.10;94.90;;;;;;5064376;28;20693;-85
2021/12/03 06:22:27;;;;;;;9.53;6.70;;;1.20;95.10;;;;;;5074888;28;20705;-85
2021/12/03 06:24:57;;;;;;;9.73;6.97;;;1.20;95.00;;;;;;5063306;28;20209;-92
2021/12/03 06:27:25;;;;;;;9.63;6.87;;;1.20;94.70;;;;;;5069196;28;20699;-87
2021/12/03 06:29:52;;;;;;;9.93;7.17;;;1.20;94.60;;;;;;5072268;28;20210;-85
2021/12/03 06:32:19;;;;;;;10.40;6.50;;;1.20;94.50;;;;;;5066446;28;20216;-84
2021/12/03 06:34:47;;;;;;;8.97;6.73;;;1.20;94.90;;;;;;5078905;28;20201;-84
2021/12/03 06:37:14;;;;;;;10.53;7.30;;;1.10;94.90;;;;;;5062328;28;20236;-84
2021/12/03 06:39:41;;;;;;;8.93;6.83;;;1.20;95.00;;;;;;5065136;28;20224;-83
2021/12/03 06:42:10;;;;;;;10.97;7.70;;;1.20;95.20;;;;;;5066644;28;20244;-82
2021/12/03 06:44:37;;;;;;;10.17;7.00;;;1.20;95.00;;;;;;5067400;28;20221;-84
2021/12/03 06:47:05;;;;;;;11.47;7.43;;;1.20;94.90;;;;;;5066748;28;20221;-84
2021/12/03 06:49:33;;;;;;;10.63;7.17;;;1.20;94.90;;;;;;5071874;28;20244;-83
2021/12/03 06:52:03;;;;;;;8.90;7.00;;;1.10;94.30;;;;;;5066349;28;20315;-83
2021/12/03 06:54:31;;;;;;;9.33;7.57;;;1.10;94.70;;;;;;5063771;28;20656;-84
2021/12/03 06:56:59;;;;;;;9.03;7.23;;;1.00;94.80;;;;;;5064805;28;20581;-83
2021/12/03 06:59:28;;;;;;;10.47;7.37;;;1.10;94.90;;;;;;5067239;28;20243;-85
2021/12/03 07:01:55;;;;;;;9.53;7.40;;;1.10;94.50;;;;;;5065970;28;20221;-87
2021/12/03 07:04:23;;;;;;;11.77;7.83;;;1.20;94.60;;;;;;5053767;28;20195;-83
2021/12/03 07:06:51;;;;;;;9.23;7.27;;;1.20;94.30;;;;;;5067761;28;20224;-85
2021/12/03 07:09:19;;;;;;;9.97;7.13;;;1.30;94.30;;;;;;5071630;28;20694;-86
2021/12/03 07:11:45;;;;;;;11.20;7.43;;;1.30;94.10;;;;;;5063508;28;20233;-83
2021/12/03 07:14:12;;;;;;;8.80;6.93;;;1.30;94.20;;;;;;5064221;28;20554;-85
2021/12/03 07:16:41;;;;;;;11.30;7.30;;;1.40;93.90;;;;;;5068653;28;20237;-85
2021/12/03 07:19:09;;;;;;;9.10;6.97;;;1.30;94.00;;;;;;5068778;28;20212;-86
2021/12/03 07:21:36;;;;;;;11.43;7.03;;;1.20;94.30;;;;;;5073113;28;20252;-84
2021/12/03 07:24:12;;;;;;;9.73;6.67;;;1.30;94.30;;;;;;5074278;28;20207;-85
2021/12/03 07:26:39;;;;;;;9.80;7.13;;;1.30;94.30;;;;;;5073908;28;20577;-85
2021/12/03 07:29:06;;;;;;;10.23;7.60;;;1.30;94.30;;;;;;5078120;28;20550;-85
2021/12/03 07:31:33;;;;;;;9.23;7.03;;;1.20;94.30;;;;;;5070473;28;20235;-87
2021/12/03 07:34:01;;;;;;;10.27;7.97;;;1.20;94.30;;;;;;5076237;28;20197;-84
2021/12/03 07:36:28;;;;;;;11.00;7.70;;;1.20;94.30;;;;;;5071005;28;20227;-84
2021/12/03 07:38:55;;;;;;;11.23;7.53;;;1.20;94.30;;;;;;5074702;28;20217;-86
2021/12/03 07:41:23;;;;;;;10.80;7.43;;;1.30;94.30;;;;;;5073487;28;20588;-83
2021/12/03 07:43:50;;;;;;;11.03;7.80;;;1.40;94.10;;;;;;5073045;28;20213;-84
2021/12/03 07:46:17;;;;;;;10.80;7.40;;;1.30;94.30;;;;;;5061165;28;20246;-86
2021/12/03 07:48:46;;;;;;;11.60;7.53;;;1.30;94.30;;;;;;5064496;28;20224;-87
2021/12/03 07:51:16;;;;;;;13.00;8.07;;;1.20;94.30;;;;;;5044646;28;20242;-88
2021/12/03 07:53:44;;;;;;;11.77;8.57;;;1.30;94.60;;;;;;5069859;28;20207;-88
2021/12/03 07:56:16;;;;;;;10.70;8.13;;;1.40;94.20;;;;;;5062002;28;20604;-85
2021/12/03 07:58:43;;;;;;;11.87;8.17;;;1.40;94.10;;;;;;5053249;28;20303;-84
2021/12/03 08:01:11;;;;;;;10.50;8.27;;;1.50;93.90;;;;;;5051361;28;20228;-87
2021/12/03 08:03:38;;;;;;;12.63;8.17;;;1.50;94.30;;;;;;5063735;28;20276;-86
2021/12/03 08:06:08;;;;;;;10.70;8.17;;;1.50;93.90;;;;;;5057017;28;20236;-85
2021/12/03 08:08:39;;;;;;;10.23;8.00;;;1.50;93.90;;;;;;5052411;28;20194;-85
2021/12/03 08:11:06;;;;;;;10.50;8.00;;;1.60;93.40;;;;;;5056497;28;21190;-86
2021/12/03 08:13:34;;;;;;;9.00;7.47;;;1.50;93.50;;;;;;5061162;28;20197;-87
2021/12/03 08:16:02;;;;;;;10.27;7.23;;;1.60;93.20;;;;;;5042560;28;20764;-85
2021/12/03 08:18:29;;;;;;;7.10;5.97;;;1.60;92.50;;;;;;5058162;28;20198;-81
2021/12/03 08:20:56;;;;;;;7.40;5.83;;;1.60;92.10;;;;;;5065495;28;20591;-88
2021/12/03 08:23:23;;;;;;;8.67;6.30;;;1.80;91.40;;;;;;5053964;28;20221;-90
2021/12/03 08:25:51;;;;;;;7.13;5.93;;;1.90;90.90;;;;;;5071476;28;20229;-82
2021/12/03 08:28:19;;;;;;;8.07;6.13;;;2.00;90.30;;;;;;5066562;28;20201;-86
2021/12/03 08:30:46;;;;;;;6.80;5.83;;;2.20;90.10;;;;;;5059153;28;20229;-87
2021/12/03 08:33:13;;;;;;;8.00;6.07;;;2.60;89.40;;;;;;5061514;28;20284;-86
2021/12/03 08:35:49;;;;;;;8.13;6.03;;;2.80;87.60;;;;;;5064726;28;20698;-88
2021/12/03 08:38:17;;;;;;;8.10;6.53;;;3.00;85.70;;;;;;5030420;28;20235;-89
2021/12/03 08:41:17;;;;;;;8.93;6.57;;;3.20;84.60;;;;;;5065864;28;21078;-89
2021/12/03 08:43:45;;;;;;;5.90;5.17;;;4.00;81.00;;;;;;5141334;22;20281;-93
2021/12/03 08:46:16;;;;;;;8.83;5.80;;;4.70;76.40;;;;;;5094337;28;20595;-91
2021/12/03 08:48:46;;;;;;;6.33;5.73;;;5.20;70.00;;;;;;5097950;28;20184;-91
2021/12/03 08:57:19;;;;;;;6.93;5.80;;;6.40;57.30;;;;;;5097498;28;20203;-90
2021/12/03 08:59:47;;;;;;;6.40;5.78;;;5.70;57.90;;;;;;5104491;28;20311;-91
2021/12/03 09:02:14;;;;;;;7.78;5.60;;;5.50;58.70;;;;;;5109736;28;20744;-89
2021/12/03 09:04:49;;;;;;;6.47;5.53;;;5.10;61.60;;;;;;5112539;28;20580;-89
2021/12/03 09:07:16;;;;;;;7.63;6.37;;;4.50;65.30;;;;;;5112268;27;20225;-90
2021/12/03 09:09:44;;;;;;;7.70;5.83;;;4.80;69.50;;;;;;5105207;28;20207;-86
2021/12/03 09:12:11;;;;;;;6.40;5.53;;;4.80;66.00;;;;;;5122409;28;20220;-86
2021/12/03 09:14:41;;;;;;;6.17;5.40;;;5.00;64.60;;;;;;5125089;28;20207;-89
2021/12/03 09:20:05;;;;;;;7.45;5.63;;;5.30;66.50;;;;;;5120186;28;20227;-86
2021/12/03 09:22:38;;;;;;;5.30;4.72;;;6.00;58.80;;;;;;5123738;28;20257;-86
2021/12/03 09:25:42;;;;;;;8.00;4.88;;;6.60;52.90;;;;;;5123533;28;20647;-87
2021/12/03 09:28:12;;;;;;;5.35;4.85;;;6.60;49.30;;;;;;5108887;28;20429;-87
2021/12/03 09:30:43;;;;;;;5.65;5.05;;;6.10;52.60;;;;;;5086917;28;20232;-86
2021/12/03 09:36:09;;;;;;;5.80;4.80;;;6.30;52.30;;;;;;5101757;28;20276;-87
2021/12/03 09:38:36;;;;;;;5.43;4.55;;;7.10;46.10;;;;;;5118562;28;20723;-89
2021/12/03 09:41:07;;;;;;;7.13;4.82;;;7.30;46.20;;;;;;5118926;28;20258;-88
2021/12/03 09:43:59;;;;;;;5.85;5.25;;;7.20;46.10;;;;;;5077992;28;20224;-86
2021/12/03 09:46:27;;;;;;;5.25;4.75;;;8.10;43.00;;;;;;5109931;28;20230;-86
2021/12/03 09:51:50;;;;;;;6.65;4.50;;;7.90;40.60;;;;;;5123167;28;20238;-88
2021/12/03 09:57:15;;;;;;;5.53;4.85;;;6.40;45.40;;;;;;5069715;28;20238;-88
2021/12/03 10:17:02;;;;;;;6.80;4.40;;;5.20;54.10;;;;;;5088594;28;20232;-90
2021/12/03 10:19:48;;;;;;;5.50;4.63;;;4.80;54.90;;;;;;5079957;28;20193;-88
2021/12/03 10:28:19;;;;;;;5.55;4.10;;;5.80;47.60;;;;;;5099187;28;20223;-87
2021/12/03 10:31:15;;;;;;;4.88;4.30;;;6.10;45.20;;;;;;5090872;28;20231;-87
2021/12/03 10:33:53;;;;;;;6.05;3.88;;;7.10;43.00;;;;;;5077870;28;20204;-87
2021/12/03 10:42:29;;;;;;;3.88;3.10;;;7.90;36.10;;;;;;5158326;27;20226;-87
2021/12/03 10:45:14;;;;;;;4.57;2.85;;;8.00;32.00;;;;;;5143838;27;20230;-87
2021/12/03 10:48:10;;;;;;;3.90;3.00;;;7.80;31.60;;;;;;5144527;27;20238;-90
2021/12/03 11:34:18;;;;;;;3.17;2.70;;;3.80;49.30;;;;;;5108153;27;20195;-87
2021/12/03 12:24:56;;;;;;;5.53;4.13;;;3.00;60.30;;;;;;5090051;27;20275;-88
2021/12/03 14:39:57;;;;;;;6.00;3.73;;;2.30;66.90;;;;;;5142453;27;20566;-86
2021/12/03 14:45:31;;;;;;;6.53;3.70;;;2.30;66.90;;;;;;4986790;28;20211;-87
2021/12/03 14:56:21;;;;;;;5.40;3.60;;;2.10;70.20;;;;;;5009580;28;20273;-87
2021/12/03 15:21:49;;;;;;;4.70;3.60;;;1.80;76.30;;;;;;5009059;28;20243;-86
2021/12/03 15:30:47;;;;;;;5.27;3.90;;;1.80;77.20;;;;;;5010482;28;20227;-86
2021/12/03 15:40:20;;;;;;;5.43;3.93;;;1.70;78.40;;;;;;5006900;28;20214;-86
2021/12/03 15:52:14;;;;;;;6.50;4.43;;;1.60;81.80;;;;;;5070458;28;20288;-86
2021/12/03 15:58:20;;;;;;;7.17;4.83;;;1.60;81.40;;;;;;5076623;28;20319;-86
2021/12/03 16:03:49;;;;;;;10.33;5.60;;;1.50;82.40;;;;;;5072494;28;20208;-86
2021/12/03 16:11:54;;;;;;;11.57;6.93;;;1.50;83.40;;;;;;5072967;28;20930;-86
2021/12/03 16:17:39;;;;;;;10.53;5.90;;;1.20;84.90;;;;;;5045483;28;20229;-86
2021/12/03 16:20:26;;;;;;;9.80;6.00;;;1.20;85.70;;;;;;5052948;28;20197;-87
2021/12/03 16:53:04;;;;;;;7.23;4.83;;;0.60;89.20;;;;;;5071444;28;20208;-87
2021/12/03 16:55:31;;;;;;;9.20;4.77;;;0.60;89.60;;;;;;5069553;28;20202;-83
2021/12/03 16:57:58;;;;;;;9.10;4.93;;;0.60;89.20;;;;;;5054866;28;20309;-85
2021/12/03 17:00:29;;;;;;;8.67;4.90;;;0.70;89.10;;;;;;5056792;28;20189;-85
2021/12/03 17:03:08;;;;;;;7.93;5.00;;;0.70;89.20;;;;;;5057855;28;20205;-86
2021/12/03 17:08:44;;;;;;;11.80;5.77;;;0.70;88.80;;;;;;5067127;28;20207;-88
2021/12/03 17:11:34;;;;;;;9.57;6.27;;;0.70;88.40;;;;;;5071826;28;20244;-87
2021/12/03 17:14:13;;;;;;;8.37;5.70;;;0.70;88.70;;;;;;5067401;28;20201;-91
2021/12/03 17:44:57;;;;;;;10.27;7.20;;;0.20;91.40;;;;;;5073278;28;20270;-87
2021/12/03 17:47:37;;;;;;;12.73;7.40;;;0.10;92.00;;;;;;5071989;28;20221;-87
2021/12/03 17:50:25;;;;;;;10.60;7.13;;;0.30;92.40;;;;;;5074603;28;20201;-85
2021/12/03 17:58:42;;;;;;;10.97;6.77;;;0.30;91.90;;;;;;4970440;28;20226;-87
2021/12/03 18:01:17;;;;;;;8.20;6.53;;;0.40;92.40;;;;;;5058094;28;20308;-87
2021/12/03 18:03:51;;;;;;;11.30;7.53;;;0.60;92.30;;;;;;5073814;28;20207;-82
2021/12/03 18:09:17;;;;;;;10.30;6.63;;;0.60;91.70;;;;;;5067493;28;20201;-82
2021/12/03 18:17:40;;;;;;;11.77;7.90;;;0.60;91.80;;;;;;5067073;28;20236;-88
2021/12/03 18:45:57;;;;;;;6.53;5.27;;;0.00;92.20;;;;;;5289783;22;20222;-83
2021/12/03 18:55:33;;;;;;;13.00;8.03;;;-0.20;92.70;;;;;;5011417;28;20201;-85
2021/12/03 19:01:27;;;;;;;15.23;8.47;;;-0.20;92.40;;;;;;5037901;28;20701;-83
2021/12/03 19:06:41;;;;;;;13.83;9.20;;;-0.20;92.30;;;;;;5052820;28;20640;-86
2021/12/03 19:09:12;;;;;;;11.17;7.83;;;-0.30;92.40;;;;;;5046643;28;20190;-86
2021/12/03 19:11:43;;;;;;;10.73;6.57;;;-0.30;92.40;;;;;;5040672;28;20582;-87
2021/12/03 19:14:10;;;;;;;10.00;6.73;;;-0.40;92.70;;;;;;5049888;28;20200;-84
2021/12/03 19:16:38;;;;;;;8.57;6.00;;;-0.40;92.80;;;;;;5051053;28;20233;-84
2021/12/03 19:19:41;;;;;;;9.30;6.20;;;-0.50;92.90;;;;;;5044691;28;20684;-85
2021/12/03 19:22:15;;;;;;;10.80;6.60;;;-0.40;92.90;;;;;;5041618;28;20229;-81
2021/12/03 19:31:32;;;;;;;8.27;5.87;;;-0.60;92.70;;;;;;5054028;28;20273;-85
2021/12/03 19:34:00;;;;;;;9.70;6.07;;;-0.70;93.10;;;;;;5054109;28;20271;-87
2021/12/03 19:36:46;;;;;;;8.83;6.10;;;-0.80;93.30;;;;;;5047788;28;20229;-83
2021/12/03 19:39:16;;;;;;;8.53;6.17;;;-0.80;93.60;;;;;;5043829;28;20246;-85
2021/12/03 20:59:37;;;;;;;6.23;4.37;;;-0.80;91.90;;;;;;4985386;28;20231;-82
2021/12/03 21:08:09;;;;;;;6.93;4.20;;;-0.90;91.90;;;;;;4960213;28;20261;-83
2021/12/03 21:10:49;;;;;;;5.77;4.23;;;-1.00;92.20;;;;;;5011306;28;20204;-83
2021/12/03 21:13:23;;;;;;;5.60;3.70;;;-1.10;92.30;;;;;;5014346;28;20199;-84
2021/12/03 21:18:40;;;;;;;6.20;3.53;;;-0.90;91.90;;;;;;5013578;28;20312;-83
2021/12/03 21:21:08;;;;;;;7.93;3.50;;;-1.00;91.80;;;;;;5014677;28;20250;-83
2021/12/03 21:23:42;;;;;;;4.47;3.50;;;-0.90;91.70;;;;;;5018076;28;20603;-83
2021/12/03 21:26:12;;;;;;;4.07;3.17;;;-0.90;91.20;;;;;;5009109;28;20227;-85
2021/12/03 21:28:46;;;;;;;5.93;3.33;;;-0.90;91.20;;;;;;5004022;28;20593;-83
2021/12/03 21:31:17;;;;;;;5.83;3.60;;;-0.90;91.20;;;;;;5013955;28;20218;-83
2021/12/03 21:39:22;;;;;;;5.10;3.30;;;-1.00;91.10;;;;;;5010005;28;20228;-83
2021/12/03 21:41:49;;;;;;;4.00;3.37;;;-1.00;91.30;;;;;;5012297;28;20608;-84
2021/12/03 21:44:23;;;;;;;4.90;3.20;;;-1.00;91.20;;;;;;5009084;28;20226;-83
2021/12/03 21:46:52;;;;;;;4.37;3.13;;;-1.00;91.10;;;;;;5011279;28;20233;-83
2021/12/03 21:49:19;;;;;;;5.23;2.83;;;-1.10;91.10;;;;;;5010028;28;20207;-81
2021/12/03 21:51:46;;;;;;;5.07;3.20;;;-1.00;91.10;;;;;;5010332;28;20310;-82
2021/12/03 21:54:19;;;;;;;6.20;3.43;;;-1.00;91.20;;;;;;5005633;28;20232;-83
2021/12/03 21:56:47;;;;;;;5.37;3.20;;;-1.00;91.10;;;;;;5009579;28;20231;-84
2021/12/03 21:59:17;;;;;;;5.03;3.20;;;-0.90;90.70;;;;;;5006846;28;20254;-86
2021/12/03 22:01:45;;;;;;;5.73;3.30;;;-1.00;90.60;;;;;;5011808;28;20227;-83
2021/12/03 22:04:11;;;;;;;4.60;3.30;;;-0.90;90.40;;;;;;5011247;28;20731;-84
2021/12/03 22:06:40;;;;;;;3.77;2.63;;;-0.90;90.30;;;;;;5009697;28;20258;-82
2021/12/03 22:09:09;;;;;;;4.13;2.90;;;-0.90;90.00;;;;;;5009983;28;20300;-84
2021/12/03 22:11:37;;;;;;;6.00;2.90;;;-0.90;90.30;;;;;;5009111;28;20266;-84
2021/12/03 22:14:05;;;;;;;4.13;2.77;;;-0.80;90.00;;;;;;5007597;28;20205;-82
2021/12/03 22:19:31;;;;;;;3.70;2.60;;;-1.00;89.50;;;;;;5003024;28;20231;-82
2021/12/03 22:22:16;;;;;;;3.80;2.57;;;-0.90;90.30;;;;;;4997441;28;20238;-82
2021/12/03 22:24:44;;;;;;;5.73;4.03;;;-0.90;89.80;;;;;;5000233;28;20198;-83
2021/12/03 22:27:35;;;;;;;3.57;2.77;;;-0.80;89.70;;;;;;5017134;28;20195;-83
2021/12/03 22:30:05;;;;;;;3.87;2.63;;;-0.80;88.60;;;;;;5024401;28;20194;-82
2021/12/03 22:32:32;;;;;;;3.13;2.30;;;-0.90;89.00;;;;;;5000923;28;20235;-82